METAR Data
IDs: Format: Raw Decoded Include TAF

Data at: 2206 UTC 18 Sep 2018

KGBD 182156Z AUTO 18016KT 10SM CLR 33/19 A2983 RMK AO2 SLP078 T03330194
KGBD 182056Z AUTO 21013KT 10SM FEW070 34/19 A2985 RMK AO2 SLP085 T03390194 56019
KGBD 181956Z AUTO 19013KT 10SM CLR 33/20 A2985 RMK AO2 SLP087 T03330200
KGBD 181856Z AUTO 20012G23KT 10SM CLR 33/21 A2988 RMK AO2 SLP097 T03280206
KGBD 181756Z AUTO 18014KT 10SM CLR 32/21 A2991 RMK AO2 SLP106 T03170206 10317 20200 58010
KGBD 181656Z AUTO 20014G20KT 10SM CLR 31/20 A2992 RMK AO2 SLP111 T03060200
KGBD 181556Z AUTO 19014KT 10SM CLR 29/21 A2993 RMK AO2 SLP115 T02890206
KGBD 181456Z AUTO 19011KT 10SM CLR 26/20 A2994 RMK AO2 SLP119 T02610200 58002
KGBD 181356Z AUTO 18015G19KT 10SM CLR 23/19 A2994 RMK AO2 SLP121 T02330189
KGBD 181256Z AUTO 18008KT 10SM CLR 21/18 A2995 RMK AO2 SLP122 T02110183
KGBD 181156Z AUTO 18007KT 10SM CLR 21/18 A2994 RMK AO2 SLP121 T02060183 10239 20206 53001
KGBD 181056Z AUTO 19006KT 10SM CLR 21/18 A2994 RMK AO2 SLP120 T02110183
KGBD 180956Z AUTO 19006KT 10SM FEW090 22/18 A2994 RMK AO2 SLP117 T02170183
KGBD 180856Z AUTO 17009KT 10SM CLR 22/18 A2994 RMK AO2 SLP118 T02220183 58002
KGBD 180756Z AUTO 17006KT 10SM CLR 23/19 A2995 RMK AO2 SLP121 T02280189
KGBD 180656Z AUTO 17008KT 10SM CLR 23/19 A2995 RMK AO2 SLP121 T02330189
KGBD 180556Z AUTO 16010KT 10SM CLR 24/19 A2995 RMK AO2 SLP121 T02390189 10311 20239 403280206 51006
KGBD 180456Z AUTO 16009KT 10SM CLR 24/19 A2994 RMK AO2 SLP119 T02440189
KGBD 180356Z AUTO 16009KT 10SM CLR 24/19 A2994 RMK AO2 SLP120 T02440194 TSNO
KGBD 180256Z AUTO 16010KT 10SM CLR 26/19 A2993 RMK AO2 SLP116 T02560194 53015 TSNO
KGBD 180156Z AUTO 14009KT 10SM CLR 27/19 A2991 RMK AO2 SLP110 T02670194
KGBD 180056Z AUTO 15009KT 10SM CLR 28/19 A2990 RMK AO2 SLP106 T02830194
KGBD 172356Z AUTO 16014KT 10SM CLR 31/19 A2988 RMK AO2 SLP100 T03110194 10328 20306 56006
KGBD 172256Z AUTO 16009KT 10SM FEW075 31/19 A2989 RMK AO2 SLP101 T03110194
KGBD 172156Z AUTO 17016G19KT 10SM SCT065 SCT100 32/20 A2989 RMK AO2 SLP100 T03220200
KGBD 171956Z AUTO 19016G20KT 10SM FEW065 32/19 A2992 RMK AO2 SLP110 T03220194
KGBD 171856Z AUTO 19014G22KT 10SM SCT060 32/19 A2993 RMK AO2 SLP115 T03170194
KGBD 171756Z AUTO 18015G20KT 10SM FEW055 32/20 A2995 RMK AO2 SLP120 T03170200 10317 20206 58007
KGBD 171656Z AUTO 20009G17KT 10SM CLR 30/21 A2997 RMK AO2 SLP129 T03000206
KGBD 171556Z AUTO 19012KT 10SM CLR 28/21 A2997 RMK AO2 SLP130 T02830211
KGBD 171456Z AUTO 20014KT 10SM FEW085 26/21 A2997 RMK AO2 SLP132 T02560211 51005
KGBD 171356Z AUTO 18011KT 10SM CLR 23/21 A2997 RMK AO2 SLP131 T02280206
KGBD 171256Z AUTO 16007KT 8SM CLR 21/20 A2996 RMK AO2 SLP130 T02110200
KGBD 171156Z AUTO 16008KT 9SM CLR 21/20 A2996 RMK AO2 SLP127 T02060200 10228 20206 53001
KGBD 171056Z AUTO 18008KT 10SM CLR 21/20 A2995 RMK AO2 SLP125 T02110200